Time;durP1;ratioP1;P1;durP2;ratioP2;P2;SDS_P1;SDS_P2;PMS_P1;PMS_P2;Temp;Humidity;BMP_temperature;BMP_pressure;BME280_temperature;BME280_humidity;BME280_pressure;Samples;Min_cycle;Max_cycle;Signal;HPM_P1;HPM_P2
2023/04/15 00:00:43;;;;;;;11.15;3.55;;;9.40;99.90;;;;;;5059823;28;20048;-72
2023/04/15 00:03:09;;;;;;;6.05;3.92;;;9.40;99.90;;;;;;5060646;28;20029;-72
2023/04/15 00:05:35;;;;;;;11.35;3.70;;;9.30;99.90;;;;;;5059481;28;20028;-72
2023/04/15 00:08:01;;;;;;;9.80;3.20;;;9.30;99.90;;;;;;5059709;28;20092;-72
2023/04/15 00:10:27;;;;;;;4.65;3.15;;;9.20;99.90;;;;;;5060384;28;20025;-72
2023/04/15 00:12:52;;;;;;;4.05;3.33;;;9.10;99.90;;;;;;5060728;28;20017;-72
2023/04/15 00:15:18;;;;;;;6.15;3.63;;;9.00;99.90;;;;;;5060300;28;20032;-72
2023/04/15 00:17:44;;;;;;;8.32;3.63;;;9.00;99.90;;;;;;5060254;28;20029;-72
2023/04/15 00:20:10;;;;;;;10.70;4.38;;;9.00;99.90;;;;;;5059890;28;20028;-72
2023/04/15 00:22:36;;;;;;;8.40;4.22;;;9.00;99.90;;;;;;5059242;28;20025;-72
2023/04/15 00:25:02;;;;;;;6.18;3.38;;;8.90;99.90;;;;;;5059143;28;20111;-72
2023/04/15 00:27:28;;;;;;;6.25;3.20;;;8.90;99.90;;;;;;5059265;28;20025;-72
2023/04/15 00:29:54;;;;;;;12.32;4.97;;;8.80;99.90;;;;;;5059291;28;20017;-72
2023/04/15 00:32:19;;;;;;;6.25;4.20;;;8.80;99.90;;;;;;5059519;28;20029;-72
2023/04/15 00:34:45;;;;;;;8.43;4.53;;;8.70;99.90;;;;;;5060071;28;20033;-72
2023/04/15 00:37:11;;;;;;;8.32;3.65;;;8.70;99.90;;;;;;5059170;28;20108;-72
2023/04/15 00:39:36;;;;;;;8.98;4.18;;;8.60;99.90;;;;;;5059163;28;20029;-72
2023/04/15 00:42:04;;;;;;;10.07;3.85;;;8.60;99.90;;;;;;5058885;28;20027;-72
2023/04/15 00:44:29;;;;;;;10.60;3.83;;;8.70;99.90;;;;;;5059808;28;20035;-72
2023/04/15 00:46:56;;;;;;;10.27;3.97;;;8.70;99.90;;;;;;5059265;28;20025;-72
2023/04/15 00:49:21;;;;;;;10.77;3.85;;;8.60;99.90;;;;;;5058858;28;20021;-72
2023/04/15 00:51:47;;;;;;;5.68;3.53;;;8.60;99.90;;;;;;5058904;28;20057;-72
2023/04/15 00:54:13;;;;;;;5.60;3.70;;;8.60;99.90;;;;;;5059478;28;20132;-72
2023/04/15 00:56:39;;;;;;;12.13;4.43;;;8.60;99.90;;;;;;5059994;28;20127;-72
2023/04/15 00:59:06;;;;;;;19.30;4.57;;;8.60;99.90;;;;;;5058915;28;20032;-72
2023/04/15 01:01:34;;;;;;;9.68;4.22;;;8.60;99.90;;;;;;5058981;28;20055;-71
2023/04/15 01:04:00;;;;;;;9.23;4.18;;;8.50;99.90;;;;;;5058552;28;20094;-72
2023/04/15 01:06:26;;;;;;;8.63;4.50;;;8.40;99.90;;;;;;5059321;28;20025;-72
2023/04/15 01:08:53;;;;;;;8.43;4.40;;;8.40;99.90;;;;;;5058156;28;20143;-72
2023/04/15 01:11:19;;;;;;;7.63;3.80;;;8.30;99.90;;;;;;5057980;28;20017;-71
2023/04/15 01:13:45;;;;;;;5.80;3.55;;;8.30;99.90;;;;;;5058473;28;20025;-71
2023/04/15 01:16:12;;;;;;;7.30;3.72;;;8.30;99.90;;;;;;5059737;28;20111;-71
2023/04/15 01:18:38;;;;;;;10.73;4.30;;;8.30;99.90;;;;;;5058367;28;20029;-72
2023/04/15 01:21:05;;;;;;;6.70;3.30;;;8.20;99.90;;;;;;5058379;28;20035;-72
2023/04/15 01:23:31;;;;;;;7.60;3.65;;;8.20;99.90;;;;;;5058438;28;20108;-72
2023/04/15 01:25:58;;;;;;;15.52;3.90;;;8.20;99.90;;;;;;5058979;28;20020;-72
2023/04/15 01:28:24;;;;;;;8.50;4.20;;;8.20;99.90;;;;;;5058313;28;20028;-71
2023/04/15 01:30:49;;;;;;;10.35;3.47;;;8.20;99.90;;;;;;5059194;28;20039;-71
2023/04/15 01:33:15;;;;;;;5.85;3.75;;;8.20;99.90;;;;;;5058166;28;20029;-72
2023/04/15 01:35:43;;;;;;;8.88;3.60;;;8.10;99.90;;;;;;5057990;28;20045;-71
2023/04/15 01:38:10;;;;;;;10.70;3.90;;;8.10;99.90;;;;;;5058846;28;20025;-71
2023/04/15 01:40:36;;;;;;;9.27;4.32;;;8.10;99.90;;;;;;5057941;28;20024;-71
2023/04/15 01:43:02;;;;;;;8.95;4.20;;;8.00;99.90;;;;;;5057725;28;20021;-72
2023/04/15 01:45:28;;;;;;;6.28;4.07;;;8.10;99.90;;;;;;5058756;28;20025;-72
2023/04/15 01:47:54;;;;;;;8.07;4.25;;;8.10;99.90;;;;;;5058097;28;20016;-71
2023/04/15 01:50:20;;;;;;;7.20;4.03;;;8.20;99.90;;;;;;5061594;28;20031;-71
2023/04/15 01:52:47;;;;;;;8.90;4.05;;;8.20;99.90;;;;;;5058700;28;20017;-71
2023/04/15 01:55:13;;;;;;;6.65;4.25;;;8.30;99.90;;;;;;5057891;28;20049;-72
2023/04/15 01:57:38;;;;;;;7.55;4.38;;;8.20;99.90;;;;;;5057906;28;20032;-72
2023/04/15 02:00:06;;;;;;;6.80;4.25;;;8.00;99.90;;;;;;5057575;28;20032;-71
2023/04/15 02:02:32;;;;;;;11.52;4.10;;;7.90;99.90;;;;;;5058291;28;20108;-72
2023/04/15 02:04:58;;;;;;;6.22;4.57;;;7.90;99.90;;;;;;5057459;28;20067;-72
2023/04/15 02:07:23;;;;;;;9.52;4.32;;;7.70;99.90;;;;;;5057561;28;20021;-71
2023/04/15 02:09:49;;;;;;;5.88;3.88;;;7.60;99.90;;;;;;5058273;28;20025;-71
2023/04/15 02:12:14;;;;;;;9.10;4.57;;;7.60;99.90;;;;;;5058115;28;20060;-71
2023/04/15 02:14:40;;;;;;;7.05;3.50;;;7.60;99.90;;;;;;5057403;28;20025;-71
2023/04/15 02:17:08;;;;;;;8.55;3.85;;;7.70;99.90;;;;;;5057107;28;20029;-71
2023/04/15 02:19:34;;;;;;;10.45;3.92;;;7.80;99.90;;;;;;5057312;28;20025;-71
2023/04/15 02:22:03;;;;;;;9.85;3.95;;;7.90;99.90;;;;;;5056993;28;20024;-71
2023/04/15 02:24:29;;;;;;;6.43;3.78;;;8.00;99.90;;;;;;5057273;28;20033;-71
2023/04/15 02:26:55;;;;;;;8.85;3.63;;;8.00;99.90;;;;;;5057886;28;20057;-71
2023/04/15 02:29:22;;;;;;;14.50;4.80;;;7.80;99.90;;;;;;5057320;28;20028;-71
2023/04/15 02:31:47;;;;;;;7.90;3.95;;;7.70;99.90;;;;;;5057062;28;20027;-71
2023/04/15 02:34:13;;;;;;;10.98;4.57;;;7.70;99.90;;;;;;5056909;28;20021;-71
2023/04/15 02:36:39;;;;;;;8.10;3.60;;;7.50;99.90;;;;;;5057534;28;20029;-71
2023/04/15 02:39:05;;;;;;;7.70;4.78;;;7.40;99.90;;;;;;5057233;28;20120;-71
2023/04/15 02:41:31;;;;;;;7.85;4.32;;;7.40;99.90;;;;;;5057539;28;20087;-72
2023/04/15 02:43:56;;;;;;;9.10;4.25;;;7.40;99.90;;;;;;5057002;28;20021;-72
2023/04/15 02:46:22;;;;;;;7.88;3.83;;;7.30;99.90;;;;;;5056545;28;20139;-71
2023/04/15 02:48:52;;;;;;;11.52;4.15;;;7.20;99.90;;;;;;5057463;28;20021;-71
2023/04/15 02:51:21;;;;;;;7.63;3.95;;;7.20;99.90;;;;;;5056699;28;20049;-71
2023/04/15 02:53:48;;;;;;;9.18;4.15;;;7.10;99.90;;;;;;5057505;28;20023;-71
2023/04/15 02:56:14;;;;;;;9.15;4.43;;;7.00;99.90;;;;;;5056801;28;20079;-71
2023/04/15 02:58:41;;;;;;;8.82;4.22;;;7.00;99.90;;;;;;5057473;28;20021;-72
2023/04/15 03:01:07;;;;;;;10.50;4.15;;;7.00;99.90;;;;;;5056428;28;20021;-72
2023/04/15 03:03:33;;;;;;;8.52;3.85;;;7.00;99.90;;;;;;5056801;28;20095;-71
2023/04/15 03:05:59;;;;;;;7.75;4.05;;;7.00;99.90;;;;;;5056863;28;20025;-72
2023/04/15 03:08:24;;;;;;;11.18;4.32;;;7.10;99.90;;;;;;5057210;28;20163;-71
2023/04/15 03:10:51;;;;;;;8.73;3.90;;;7.10;99.90;;;;;;5056437;28;20025;-71
2023/04/15 03:13:17;;;;;;;8.40;3.75;;;7.20;99.90;;;;;;5056598;28;20025;-72
2023/04/15 03:15:45;;;;;;;11.02;4.80;;;7.30;99.90;;;;;;5056122;28;20167;-72
2023/04/15 03:18:10;;;;;;;9.52;4.15;;;7.30;99.90;;;;;;5056392;28;20032;-72
2023/04/15 03:20:36;;;;;;;7.63;4.47;;;7.30;99.90;;;;;;5056490;28;20029;-72
2023/04/15 03:23:01;;;;;;;5.75;3.65;;;7.30;99.90;;;;;;5057076;28;20074;-76
2023/04/15 03:25:27;;;;;;;12.32;3.97;;;7.30;99.90;;;;;;5056617;28;20079;-75
2023/04/15 03:27:52;;;;;;;15.68;4.15;;;7.30;99.90;;;;;;5056736;28;20021;-75
2023/04/15 03:30:18;;;;;;;10.00;3.80;;;7.40;99.90;;;;;;5056997;28;20024;-75
2023/04/15 03:32:43;;;;;;;6.97;4.15;;;7.30;99.90;;;;;;5056156;28;20021;-76
2023/04/15 03:35:09;;;;;;;6.70;3.92;;;7.20;99.90;;;;;;5055990;28;20040;-75
2023/04/15 03:37:34;;;;;;;11.30;4.28;;;7.10;99.90;;;;;;5056200;28;20029;-75
2023/04/15 03:40:01;;;;;;;9.43;3.75;;;7.00;99.90;;;;;;5056460;28;20025;-76
2023/04/15 03:42:26;;;;;;;7.63;3.95;;;6.90;99.90;;;;;;5056487;28;20029;-76
2023/04/15 03:44:52;;;;;;;7.85;4.10;;;6.80;99.90;;;;;;5056426;28;20048;-76
2023/04/15 03:47:17;;;;;;;7.50;4.00;;;6.80;99.90;;;;;;5056299;28;20025;-76
2023/04/15 03:49:43;;;;;;;8.10;4.13;;;6.80;99.90;;;;;;5057618;28;20021;-75
2023/04/15 03:52:09;;;;;;;7.05;3.42;;;6.80;99.90;;;;;;5056613;28;20025;-69
2023/04/15 03:54:34;;;;;;;8.60;4.18;;;6.80;99.90;;;;;;5056003;28;20013;-69
2023/04/15 03:57:00;;;;;;;10.32;4.65;;;6.70;99.90;;;;;;5055862;28;20028;-69
2023/04/15 03:59:25;;;;;;;11.70;4.13;;;6.70;99.90;;;;;;5056098;28;20028;-69
2023/04/15 04:01:51;;;;;;;6.43;3.72;;;6.70;99.90;;;;;;5055838;28;20029;-70
2023/04/15 04:04:16;;;;;;;8.65;4.03;;;6.80;99.90;;;;;;5056441;28;20013;-69
2023/04/15 04:06:42;;;;;;;8.80;4.53;;;6.80;99.90;;;;;;5055582;28;20124;-70
2023/04/15 04:09:08;;;;;;;7.97;3.88;;;6.80;99.90;;;;;;5055982;28;20029;-69
2023/04/15 04:11:33;;;;;;;8.85;3.80;;;6.90;99.90;;;;;;5055925;28;20017;-69
2023/04/15 04:13:59;;;;;;;8.15;4.90;;;6.90;99.90;;;;;;5056457;28;20021;-69
2023/04/15 04:16:25;;;;;;;10.70;3.88;;;6.90;99.90;;;;;;5055494;28;20051;-70
2023/04/15 04:18:50;;;;;;;12.18;3.53;;;6.80;99.90;;;;;;5055694;28;20076;-69
2023/04/15 04:21:16;;;;;;;10.40;4.60;;;6.80;99.90;;;;;;5056405;28;20138;-70
2023/04/15 04:23:42;;;;;;;11.45;4.75;;;6.70;99.90;;;;;;5056300;28;20021;-69
2023/04/15 04:26:07;;;;;;;8.43;3.72;;;6.60;99.90;;;;;;5055585;28;20082;-69
2023/04/15 04:28:34;;;;;;;7.68;4.20;;;6.50;99.90;;;;;;5055789;28;20051;-70
2023/04/15 04:31:00;;;;;;;15.75;3.95;;;6.60;99.90;;;;;;5055756;28;20051;-70
2023/04/15 04:33:25;;;;;;;8.05;4.25;;;6.60;99.90;;;;;;5055668;28;20120;-69
2023/04/15 04:35:51;;;;;;;18.20;3.97;;;6.60;99.90;;;;;;5089565;22;20071;-75
2023/04/15 04:38:16;;;;;;;8.93;4.00;;;6.60;99.90;;;;;;5075343;28;20037;-74
2023/04/15 04:40:43;;;;;;;7.35;4.00;;;6.60;99.90;;;;;;5075378;28;20021;-74
2023/04/15 04:43:08;;;;;;;7.80;3.33;;;6.60;99.90;;;;;;5075413;28;20025;-74
2023/04/15 04:45:35;;;;;;;7.88;3.42;;;6.60;99.90;;;;;;5078908;28;20031;-74
2023/04/15 04:48:00;;;;;;;7.40;3.70;;;6.70;99.90;;;;;;5079738;28;20028;-74
2023/04/15 04:50:26;;;;;;;6.85;3.65;;;6.70;99.90;;;;;;5079392;28;20017;-74
2023/04/15 04:52:51;;;;;;;9.10;4.25;;;6.70;99.90;;;;;;5079593;28;20027;-74
2023/04/15 04:55:17;;;;;;;8.88;3.90;;;6.80;99.90;;;;;;5078692;28;20036;-74
2023/04/15 04:57:42;;;;;;;13.02;3.85;;;6.80;99.90;;;;;;5079793;28;20119;-73
2023/04/15 05:00:08;;;;;;;8.55;3.78;;;6.80;99.90;;;;;;5079448;28;20031;-74
2023/04/15 05:02:34;;;;;;;5.63;3.30;;;6.80;99.90;;;;;;5078624;28;20112;-74
2023/04/15 05:05:00;;;;;;;7.90;3.65;;;6.80;99.90;;;;;;5078489;28;20120;-74
2023/04/15 05:07:26;;;;;;;4.80;2.97;;;6.80;99.90;;;;;;5078769;28;20016;-74
2023/04/15 05:09:51;;;;;;;13.05;4.00;;;6.80;99.90;;;;;;5078623;28;20055;-72
2023/04/15 05:12:17;;;;;;;9.40;3.83;;;6.70;99.90;;;;;;5078782;28;20025;-74
2023/04/15 05:14:43;;;;;;;8.48;4.00;;;6.60;99.90;;;;;;5078380;28;20016;-75
2023/04/15 05:17:10;;;;;;;6.38;3.97;;;6.60;99.90;;;;;;5078438;28;20137;-75
2023/04/15 05:19:35;;;;;;;10.52;4.50;;;6.50;99.90;;;;;;5079126;28;20013;-75
2023/04/15 05:22:01;;;;;;;9.95;4.05;;;6.50;99.90;;;;;;5079539;28;20025;-75
2023/04/15 05:24:26;;;;;;;11.50;3.90;;;6.50;99.90;;;;;;5078101;28;20021;-75
2023/04/15 05:26:52;;;;;;;8.32;3.72;;;6.50;99.90;;;;;;5078431;28;20093;-75
2023/04/15 05:29:17;;;;;;;9.05;3.72;;;6.60;99.90;;;;;;5079387;28;20021;-75
2023/04/15 05:31:43;;;;;;;9.05;4.38;;;6.60;99.90;;;;;;5078656;28;20020;-74
2023/04/15 05:34:10;;;;;;;7.22;3.53;;;6.70;99.90;;;;;;5078022;28;20046;-74
2023/04/15 05:36:36;;;;;;;9.65;4.38;;;6.70;99.90;;;;;;5077958;28;20047;-74
2023/04/15 05:39:01;;;;;;;9.65;3.97;;;6.70;99.90;;;;;;5078867;28;20064;-74
2023/04/15 05:41:27;;;;;;;10.18;4.00;;;6.80;99.90;;;;;;5078510;28;20025;-74
2023/04/15 05:43:52;;;;;;;7.30;3.70;;;6.80;99.90;;;;;;5077919;28;20028;-74
2023/04/15 05:46:18;;;;;;;8.20;3.80;;;6.90;99.90;;;;;;5079446;28;20085;-74
2023/04/15 05:48:44;;;;;;;6.13;3.70;;;6.90;99.90;;;;;;5078073;28;20016;-74
2023/04/15 05:51:10;;;;;;;5.57;3.03;;;6.90;99.90;;;;;;5077743;28;20025;-72
2023/04/15 05:53:36;;;;;;;5.82;3.33;;;6.90;99.90;;;;;;5078828;28;20048;-72
2023/04/15 05:56:01;;;;;;;13.65;4.22;;;7.00;99.90;;;;;;5062824;28;20033;-73
2023/04/15 05:58:27;;;;;;;7.20;3.53;;;7.10;99.90;;;;;;5058253;28;20032;-72
2023/04/15 06:00:52;;;;;;;6.57;3.22;;;7.10;99.90;;;;;;5068559;28;20029;-72
2023/04/15 06:03:18;;;;;;;4.80;2.75;;;7.10;99.90;;;;;;5065337;28;20025;-73
2023/04/15 06:05:44;;;;;;;6.65;3.55;;;7.20;99.90;;;;;;5057162;28;20029;-72
2023/04/15 06:08:10;;;;;;;8.70;3.22;;;7.20;99.90;;;;;;5057705;28;20029;-72
2023/04/15 06:10:35;;;;;;;11.50;3.58;;;7.20;99.90;;;;;;5058355;28;20047;-72
2023/04/15 06:13:04;;;;;;;6.05;3.03;;;7.30;99.90;;;;;;5057271;28;20052;-72
2023/04/15 06:15:30;;;;;;;7.57;4.30;;;7.30;99.90;;;;;;5057484;28;20021;-72
2023/04/15 06:17:56;;;;;;;7.75;3.92;;;7.40;99.90;;;;;;5057280;28;20021;-72
2023/04/15 06:20:22;;;;;;;10.25;3.50;;;7.40;99.90;;;;;;5057541;28;20041;-72
2023/04/15 06:22:48;;;;;;;14.02;4.88;;;7.40;99.90;;;;;;5057418;28;20025;-72
2023/04/15 06:25:14;;;;;;;13.02;6.07;;;7.50;99.90;;;;;;5057803;28;20029;-72
2023/04/15 06:27:40;;;;;;;17.00;6.45;;;7.50;99.90;;;;;;5057417;28;20043;-72
2023/04/15 06:30:06;;;;;;;9.75;4.38;;;7.60;99.90;;;;;;5057221;28;20013;-72
2023/04/15 06:32:32;;;;;;;6.80;3.65;;;7.60;99.90;;;;;;5057427;28;20028;-72
2023/04/15 06:34:58;;;;;;;7.03;3.95;;;7.70;99.90;;;;;;5056786;28;20033;-72
2023/04/15 06:37:23;;;;;;;6.25;3.75;;;7.80;99.90;;;;;;5057064;28;20027;-72
2023/04/15 06:39:49;;;;;;;9.98;3.63;;;7.80;99.90;;;;;;5057152;28;20053;-72
2023/04/15 06:42:15;;;;;;;10.05;3.83;;;7.80;99.90;;;;;;5057031;28;20040;-72
2023/04/15 06:44:41;;;;;;;8.07;3.70;;;7.80;99.90;;;;;;5056601;28;20115;-72
2023/04/15 06:47:07;;;;;;;6.70;4.00;;;7.90;99.90;;;;;;5068938;28;20028;-72
2023/04/15 06:49:33;;;;;;;4.97;3.80;;;7.90;99.90;;;;;;5076740;28;20115;-72
2023/04/15 06:51:59;;;;;;;5.78;3.53;;;8.00;99.90;;;;;;5063394;28;20052;-72
2023/04/15 06:54:25;;;;;;;5.88;3.78;;;8.00;99.90;;;;;;5065434;28;20016;-72
2023/04/15 06:56:51;;;;;;;8.88;4.13;;;8.00;99.90;;;;;;5076743;28;20059;-71
2023/04/15 06:59:17;;;;;;;6.65;4.00;;;8.00;99.90;;;;;;5066215;28;20025;-72
2023/04/15 07:01:42;;;;;;;8.90;4.38;;;8.10;99.90;;;;;;5070116;28;20025;-72
2023/04/15 07:04:08;;;;;;;8.48;4.15;;;8.30;99.90;;;;;;5076768;28;20024;-74
2023/04/15 07:06:34;;;;;;;7.60;3.63;;;8.30;99.90;;;;;;5076407;28;20027;-74
2023/04/15 07:09:00;;;;;;;9.05;4.57;;;8.30;99.90;;;;;;5073386;28;20031;-74
2023/04/15 07:11:26;;;;;;;8.40;4.28;;;8.30;99.90;;;;;;5077264;28;20110;-74
2023/04/15 07:13:52;;;;;;;6.57;4.55;;;8.40;99.90;;;;;;5060648;28;20115;-76
2023/04/15 07:16:18;;;;;;;12.15;3.92;;;8.30;99.90;;;;;;5056195;28;20029;-75
2023/04/15 07:18:43;;;;;;;6.90;4.05;;;8.10;99.90;;;;;;5063534;28;20078;-75
2023/04/15 07:21:09;;;;;;;9.15;4.38;;;8.10;99.90;;;;;;5076139;28;20029;-75
2023/04/15 07:23:35;;;;;;;8.90;4.25;;;8.00;99.90;;;;;;5059231;28;20032;-75
2023/04/15 07:26:00;;;;;;;7.60;4.50;;;8.20;99.90;;;;;;5055866;28;20032;-74
2023/04/15 07:28:26;;;;;;;7.13;4.18;;;8.20;99.90;;;;;;5069538;28;20070;-75
2023/04/15 07:30:52;;;;;;;6.97;4.85;;;8.10;99.90;;;;;;5076406;28;20027;-75
2023/04/15 07:33:17;;;;;;;7.55;4.30;;;8.10;99.90;;;;;;5066733;28;20025;-75
2023/04/15 07:35:44;;;;;;;11.25;4.68;;;8.10;99.90;;;;;;5055756;28;20079;-78
2023/04/15 07:38:11;;;;;;;9.70;4.75;;;8.20;99.90;;;;;;5056068;28;20036;-75
2023/04/15 07:40:38;;;;;;;9.25;4.88;;;8.40;99.90;;;;;;5056677;28;20078;-74
2023/04/15 07:43:04;;;;;;;15.30;6.03;;;8.40;99.90;;;;;;5056047;28;20025;-74
2023/04/15 07:45:30;;;;;;;9.38;5.85;;;8.60;99.90;;;;;;5056020;28;20108;-75
2023/04/15 07:47:56;;;;;;;13.77;6.53;;;8.70;99.90;;;;;;5061946;28;20097;-75
2023/04/15 07:50:22;;;;;;;7.28;4.80;;;8.90;99.90;;;;;;5056920;28;20048;-75
2023/04/15 07:52:48;;;;;;;9.07;5.07;;;9.00;99.90;;;;;;5056268;28;20025;-75
2023/04/15 07:55:16;;;;;;;12.48;6.28;;;9.10;99.90;;;;;;5056074;28;20021;-75
2023/04/15 07:57:41;;;;;;;10.65;5.18;;;9.10;99.90;;;;;;5056764;28;20029;-74
2023/04/15 08:00:08;;;;;;;10.05;4.75;;;9.20;99.90;;;;;;5056345;28;20112;-74
2023/04/15 08:02:34;;;;;;;12.63;6.43;;;9.30;99.90;;;;;;5056199;28;20112;-73
2023/04/15 08:05:02;;;;;;;14.73;5.72;;;9.40;99.90;;;;;;5056802;28;20097;-73
2023/04/15 08:07:27;;;;;;;11.00;5.68;;;9.40;99.90;;;;;;5055834;28;20051;-73
2023/04/15 08:09:53;;;;;;;8.73;4.95;;;9.40;99.90;;;;;;5055966;28;20013;-72
2023/04/15 08:12:18;;;;;;;11.38;5.03;;;9.40;99.90;;;;;;5056551;28;20021;-77
2023/04/15 08:14:44;;;;;;;8.77;4.13;;;9.50;99.90;;;;;;5055707;28;20081;-75
2023/04/15 08:17:10;;;;;;;10.07;5.18;;;9.60;99.90;;;;;;5056201;28;20029;-74
2023/04/15 08:19:35;;;;;;;9.50;4.68;;;9.70;99.90;;;;;;5057657;28;20103;-75
2023/04/15 08:22:02;;;;;;;10.43;5.43;;;9.80;99.90;;;;;;5060978;28;20013;-75
2023/04/15 08:24:28;;;;;;;7.35;4.35;;;9.80;99.90;;;;;;5062956;28;20018;-75
2023/04/15 08:26:54;;;;;;;10.30;4.53;;;9.90;99.90;;;;;;5060282;28;20029;-76
2023/04/15 08:29:19;;;;;;;9.10;4.35;;;10.00;99.90;;;;;;5060659;28;20032;-77
2023/04/15 08:31:46;;;;;;;5.75;3.25;;;10.10;99.90;;;;;;5059394;28;20029;-78
2023/04/15 08:34:12;;;;;;;8.90;3.80;;;10.20;99.90;;;;;;5066776;28;20020;-78
2023/04/15 08:36:37;;;;;;;6.82;3.95;;;10.30;99.90;;;;;;5079971;28;20082;-76
2023/04/15 08:39:03;;;;;;;9.63;4.18;;;10.40;99.90;;;;;;5080658;28;20035;-76
2023/04/15 08:41:39;;;;;;;9.57;3.88;;;10.50;99.90;;;;;;5080093;28;20115;-72
2023/04/15 08:44:06;;;;;;;10.82;4.22;;;10.50;99.90;;;;;;5080331;28;20020;-73
2023/04/15 08:46:35;;;;;;;5.15;3.33;;;10.60;99.90;;;;;;5079574;28;20048;-73
2023/04/15 08:49:03;;;;;;;6.75;3.75;;;10.70;99.90;;;;;;5080163;28;20021;-74
2023/04/15 08:51:29;;;;;;;7.75;4.40;;;10.70;99.90;;;;;;5080335;28;20034;-74
2023/04/15 08:53:55;;;;;;;5.30;3.80;;;10.80;99.90;;;;;;5081004;28;20054;-74
2023/04/15 08:56:24;;;;;;;4.72;3.92;;;10.80;99.90;;;;;;5079902;28;20021;-74
2023/04/15 08:58:51;;;;;;;4.50;3.00;;;10.80;99.90;;;;;;5079684;28;20032;-74
2023/04/15 09:01:17;;;;;;;6.95;3.83;;;10.90;99.90;;;;;;5078982;28;20028;-74
2023/04/15 09:03:43;;;;;;;9.20;3.35;;;10.90;99.90;;;;;;5078818;28;20025;-74
2023/04/15 09:06:08;;;;;;;6.88;3.63;;;10.90;99.90;;;;;;5079713;28;20032;-74
2023/04/15 09:08:34;;;;;;;6.82;3.30;;;10.90;99.90;;;;;;5079010;28;20094;-74
2023/04/15 09:11:03;;;;;;;5.60;2.97;;;10.90;99.90;;;;;;5079538;28;20029;-74
2023/04/15 09:13:29;;;;;;;5.60;3.30;;;11.00;99.90;;;;;;5078652;28;20074;-74
2023/04/15 09:15:55;;;;;;;5.15;3.38;;;11.10;99.90;;;;;;5078843;28;20056;-74
2023/04/15 09:18:33;;;;;;;5.10;2.80;;;11.10;99.90;;;;;;5078904;28;20036;-74
2023/04/15 09:21:20;;;;;;;3.75;2.63;;;11.20;99.90;;;;;;5078997;28;20028;-74
2023/04/15 09:23:59;;;;;;;4.60;3.05;;;11.20;99.90;;;;;;5078425;28;20043;-74
2023/04/15 09:26:33;;;;;;;6.47;2.97;;;11.20;99.90;;;;;;5078487;28;20048;-74
2023/04/15 09:29:13;;;;;;;5.72;3.42;;;11.30;99.90;;;;;;5078400;28;20028;-74
2023/04/15 09:31:39;;;;;;;6.97;3.08;;;11.20;99.90;;;;;;5077811;28;20021;-74
2023/04/15 09:34:05;;;;;;;4.63;2.95;;;11.30;99.90;;;;;;5079197;28;20021;-76
2023/04/15 09:36:46;;;;;;;5.80;2.95;;;11.30;99.90;;;;;;5078377;28;20032;-76
2023/04/15 09:39:12;;;;;;;4.70;2.88;;;11.40;99.90;;;;;;5078323;28;20032;-76
2023/04/15 09:41:39;;;;;;;7.32;2.53;;;11.50;99.90;;;;;;5077988;28;20036;-76
2023/04/15 09:44:05;;;;;;;4.38;2.20;;;11.50;99.90;;;;;;5078202;28;20028;-76
2023/04/15 09:46:42;;;;;;;4.47;2.17;;;11.60;99.90;;;;;;5077916;28;20028;-77
2023/04/15 09:49:10;;;;;;;4.47;2.50;;;11.60;99.90;;;;;;5078505;28;20056;-76
2023/04/15 09:51:36;;;;;;;5.15;2.28;;;11.60;99.90;;;;;;5078059;28;20024;-76
2023/04/15 09:54:02;;;;;;;3.85;2.40;;;11.60;99.90;;;;;;5078194;28;20042;-76
2023/04/15 09:56:37;;;;;;;4.22;2.42;;;11.50;99.90;;;;;;5083688;28;20074;-76
2023/04/15 09:59:04;;;;;;;4.55;2.80;;;11.50;99.90;;;;;;5083766;28;20039;-76
2023/04/15 10:01:30;;;;;;;5.68;2.85;;;11.50;99.90;;;;;;5078527;28;20040;-76
2023/04/15 10:03:57;;;;;;;7.00;3.40;;;11.50;99.90;;;;;;5078008;28;20032;-76
2023/04/15 10:06:25;;;;;;;3.72;2.38;;;11.50;99.90;;;;;;5077764;28;20103;-76
2023/04/15 10:08:52;;;;;;;4.68;2.05;;;11.50;99.90;;;;;;5077595;28;20020;-76
2023/04/15 10:11:19;;;;;;;3.35;2.00;;;11.50;99.90;;;;;;5077636;28;20024;-76
2023/04/15 10:13:47;;;;;;;4.07;2.30;;;11.40;99.90;;;;;;5077682;28;20030;-76
2023/04/15 10:16:15;;;;;;;5.47;2.85;;;11.40;99.90;;;;;;5077612;28;20024;-76
2023/04/15 10:18:50;;;;;;;4.70;2.22;;;11.30;99.90;;;;;;5077396;28;20028;-76
2023/04/15 10:21:17;;;;;;;2.72;1.83;;;11.30;99.90;;;;;;5077257;28;20024;-76
2023/04/15 10:23:44;;;;;;;4.00;2.03;;;11.20;99.90;;;;;;5077422;28;20075;-76
2023/04/15 10:26:11;;;;;;;4.85;2.17;;;11.10;99.90;;;;;;5076945;28;20024;-75
2023/04/15 10:28:37;;;;;;;5.05;2.17;;;11.10;99.90;;;;;;5077151;28;20111;-76
2023/04/15 10:31:04;;;;;;;3.70;2.40;;;11.00;99.90;;;;;;5076993;28;20020;-76
2023/04/15 10:33:31;;;;;;;3.72;2.30;;;11.00;99.90;;;;;;5077106;28;20031;-76
2023/04/15 10:35:57;;;;;;;3.47;2.58;;;11.00;99.90;;;;;;5077426;28;20040;-73
2023/04/15 10:38:40;;;;;;;2.97;2.20;;;10.90;99.90;;;;;;5078158;28;20017;-74
2023/04/15 10:41:24;;;;;;;3.58;2.17;;;10.90;99.90;;;;;;5077539;28;20028;-74
2023/04/15 10:43:55;;;;;;;2.97;1.98;;;10.90;99.90;;;;;;5077886;28;20090;-74
2023/04/15 10:46:24;;;;;;;3.70;2.33;;;10.90;99.90;;;;;;5077505;28;20056;-73
2023/04/15 10:48:51;;;;;;;2.97;2.08;;;11.00;99.90;;;;;;5076923;28;20035;-73
2023/04/15 10:51:26;;;;;;;3.20;1.88;;;11.00;99.90;;;;;;5076629;28;20060;-73
2023/04/15 10:53:57;;;;;;;4.90;2.10;;;10.90;99.90;;;;;;5076729;28;20032;-73
2023/04/15 10:56:22;;;;;;;3.92;2.20;;;10.90;99.90;;;;;;5076832;28;20103;-74
2023/04/15 10:58:48;;;;;;;4.03;2.45;;;10.80;99.90;;;;;;5076608;28;20059;-74
2023/04/15 11:01:13;;;;;;;3.30;2.35;;;10.80;99.90;;;;;;5081147;28;20024;-73
2023/04/15 11:03:42;;;;;;;4.35;2.55;;;10.80;99.90;;;;;;5076713;28;20077;-74
2023/04/15 11:06:07;;;;;;;4.75;2.78;;;10.80;99.90;;;;;;5076638;28;20025;-74
2023/04/15 11:08:53;;;;;;;4.00;2.55;;;10.80;99.90;;;;;;5076825;28;20097;-74
2023/04/15 11:11:18;;;;;;;3.67;2.60;;;10.80;99.90;;;;;;5076556;28;20111;-74
2023/04/15 11:13:49;;;;;;;5.22;2.90;;;10.80;99.90;;;;;;5077587;28;20096;-74
2023/04/15 11:16:14;;;;;;;4.30;2.70;;;10.70;99.90;;;;;;5076218;28;20031;-74
2023/04/15 11:18:40;;;;;;;5.38;2.65;;;10.70;99.90;;;;;;5076356;28;20025;-74
2023/04/15 11:21:07;;;;;;;5.43;2.97;;;10.70;99.90;;;;;;5076483;28;20024;-74
2023/04/15 11:23:45;;;;;;;4.80;2.63;;;10.70;99.90;;;;;;5076982;28;20025;-73
2023/04/15 11:26:11;;;;;;;5.20;2.95;;;10.70;99.90;;;;;;5076229;28;20029;-73
2023/04/15 11:28:40;;;;;;;3.88;2.25;;;10.80;99.90;;;;;;5076907;28;20108;-73
2023/04/15 11:31:17;;;;;;;6.82;2.60;;;10.80;99.90;;;;;;5076504;28;20052;-73
2023/04/15 11:34:00;;;;;;;4.93;3.10;;;10.90;99.90;;;;;;5076152;28;20051;-73
2023/04/15 11:36:27;;;;;;;3.65;2.00;;;10.90;99.90;;;;;;5076160;28;20059;-73
2023/04/15 11:38:53;;;;;;;6.72;2.42;;;10.90;99.90;;;;;;5076803;28;20074;-73
2023/04/15 11:41:21;;;;;;;4.20;2.13;;;10.90;99.90;;;;;;5076254;28;20032;-73
2023/04/15 11:43:46;;;;;;;6.57;2.20;;;11.00;99.90;;;;;;5076059;28;20111;-73
2023/04/15 11:46:12;;;;;;;3.15;1.70;;;11.00;99.90;;;;;;5075853;28;20120;-73
2023/04/15 11:48:45;;;;;;;4.20;2.45;;;11.00;99.90;;;;;;5075965;28;20017;-73
2023/04/15 11:51:11;;;;;;;3.65;1.90;;;11.00;99.90;;;;;;5076739;28;20031;-73
2023/04/15 11:53:39;;;;;;;5.30;2.13;;;11.00;99.90;;;;;;5076603;28;20052;-73
2023/04/15 11:56:06;;;;;;;5.72;3.15;;;10.90;99.90;;;;;;5080763;28;20025;-73
2023/04/15 11:58:36;;;;;;;3.38;2.67;;;10.80;99.90;;;;;;5080193;28;20024;-72
2023/04/15 12:01:02;;;;;;;3.92;2.85;;;10.80;99.90;;;;;;5080279;28;20024;-72
2023/04/15 12:03:37;;;;;;;4.85;2.88;;;10.90;99.90;;;;;;5080322;28;20112;-73
2023/04/15 12:06:07;;;;;;;3.58;1.92;;;10.90;99.90;;;;;;5080489;28;20025;-72
2023/04/15 12:08:54;;;;;;;5.13;2.17;;;10.80;99.90;;;;;;5079784;28;20047;-72
2023/04/15 12:11:27;;;;;;;2.88;2.05;;;10.80;99.90;;;;;;5079967;28;20013;-72
2023/04/15 12:13:55;;;;;;;4.55;2.15;;;10.80;99.90;;;;;;5080571;28;20119;-73
2023/04/15 12:16:21;;;;;;;4.70;2.72;;;10.80;99.90;;;;;;5079487;28;20119;-72
2023/04/15 12:18:52;;;;;;;3.55;2.13;;;10.70;99.90;;;;;;5079546;28;20112;-73
2023/04/15 12:21:22;;;;;;;4.15;2.58;;;10.80;99.90;;;;;;5079593;28;20024;-73
2023/04/15 12:23:53;;;;;;;4.63;2.67;;;10.80;99.90;;;;;;5079791;28;20028;-72
2023/04/15 12:26:26;;;;;;;6.03;2.97;;;10.80;99.90;;;;;;5079370;28;20105;-73
2023/04/15 12:29:02;;;;;;;7.15;3.13;;;10.80;99.90;;;;;;5080451;28;20052;-73
2023/04/15 12:31:28;;;;;;;6.93;2.97;;;10.70;99.90;;;;;;5080106;28;20024;-72
2023/04/15 12:33:59;;;;;;;4.57;3.20;;;10.80;99.90;;;;;;5080126;28;20032;-72
2023/04/15 12:36:25;;;;;;;5.35;2.80;;;10.80;99.90;;;;;;5079087;28;20037;-72
2023/04/15 12:38:50;;;;;;;6.47;3.53;;;10.80;99.90;;;;;;5079765;28;20090;-72
2023/04/15 12:41:16;;;;;;;9.95;3.90;;;10.70;99.90;;;;;;5079161;28;20028;-72
2023/04/15 12:43:45;;;;;;;4.60;2.95;;;10.70;99.90;;;;;;5079123;28;20037;-74
2023/04/15 12:46:11;;;;;;;5.47;2.88;;;10.70;99.90;;;;;;5079006;28;20041;-75
2023/04/15 12:48:36;;;;;;;7.28;3.05;;;10.70;99.90;;;;;;5079224;28;20085;-75